createdAt,value
2022-11-15T00:01:19.821Z,8.40
2022-11-15T00:06:17.072Z,8.30
2022-11-15T00:11:14.743Z,8.30
2022-11-15T00:16:12.188Z,8.20
2022-11-15T00:21:13.203Z,8.30
2022-11-15T00:26:15.726Z,8.30
2022-11-15T00:31:16.080Z,8.30
2022-11-15T00:36:13.825Z,8.40
2022-11-15T00:41:11.079Z,8.40
2022-11-15T00:46:10.174Z,8.40
2022-11-15T00:51:07.494Z,8.20
2022-11-15T00:56:05.018Z,8.20
2022-11-15T01:01:11.105Z,8.30
2022-11-15T01:06:10.108Z,8.30
2022-11-15T01:11:13.233Z,8.40
2022-11-15T01:16:18.239Z,8.30
2022-11-15T01:21:19.130Z,8.30
2022-11-15T01:26:17.020Z,8.40
2022-11-15T01:31:21.771Z,8.50
2022-11-15T01:36:24.879Z,8.40
2022-11-15T01:41:25.146Z,8.40
2022-11-15T01:46:34.162Z,8.40
2022-11-15T01:51:34.512Z,8.40
2022-11-15T01:56:34.263Z,8.40
2022-11-15T02:01:34.262Z,8.40
2022-11-15T02:06:32.146Z,8.40
2022-11-15T02:11:30.039Z,8.40
2022-11-15T02:16:55.067Z,8.40
2022-11-15T02:22:16.442Z,8.30
2022-11-15T02:27:39.307Z,8.30
2022-11-15T02:32:46.483Z,8.30
2022-11-15T02:37:54.682Z,8.20
2022-11-15T02:43:15.414Z,8.20
2022-11-15T02:48:13.447Z,8.10
2022-11-15T02:53:11.782Z,8.10
2022-11-15T02:58:23.892Z,8.20
2022-11-15T03:03:30.732Z,8.20
2022-11-15T03:08:34.246Z,8.30
2022-11-15T03:13:52.941Z,8.30
2022-11-15T03:19:38.482Z,8.20
2022-11-15T03:24:39.388Z,8.20
2022-11-15T03:29:49.026Z,8.10
2022-11-15T03:34:58.556Z,8.20
2022-11-15T03:39:58.603Z,8.20
2022-11-15T03:45:18.655Z,8.10
2022-11-15T03:50:21.026Z,8.00
2022-11-15T03:55:22.190Z,8.00
2022-11-15T04:00:19.754Z,7.90
2022-11-15T04:05:17.243Z,7.90
2022-11-15T04:10:14.873Z,7.90
2022-11-15T04:15:14.823Z,7.80
2022-11-15T04:20:39.873Z,7.80
2022-11-15T04:25:37.218Z,7.90
2022-11-15T04:30:34.776Z,7.80
2022-11-15T04:35:37.703Z,7.70
2022-11-15T04:40:37.747Z,7.70
2022-11-15T04:45:35.538Z,7.60
2022-11-15T04:50:32.957Z,7.50
2022-11-15T04:55:30.609Z,7.30
2022-11-15T05:00:30.619Z,7.20
2022-11-15T05:05:29.768Z,7.00
2022-11-15T05:10:28.037Z,6.90
2022-11-15T05:15:25.830Z,6.80
2022-11-15T05:20:25.573Z,6.60
2022-11-15T05:25:24.751Z,6.50
2022-11-15T05:30:25.477Z,6.40
2022-11-15T05:35:42.682Z,6.40
2022-11-15T05:40:40.132Z,6.20
2022-11-15T05:45:38.238Z,6.20
2022-11-15T05:50:37.937Z,6.20
2022-11-15T05:55:35.543Z,6.00
2022-11-15T06:00:32.911Z,5.90
2022-11-15T06:05:30.117Z,5.90
2022-11-15T06:10:27.457Z,5.90
2022-11-15T06:15:24.707Z,5.80
2022-11-15T06:20:22.019Z,5.60
2022-11-15T06:25:19.345Z,5.60
2022-11-15T06:30:16.634Z,5.50
2022-11-15T06:35:14.918Z,5.60
2022-11-15T06:40:12.532Z,5.60
2022-11-15T06:45:10.023Z,5.60
2022-11-15T06:50:08.084Z,5.60
2022-11-15T06:55:05.680Z,5.60
2022-11-15T07:00:05.188Z,5.80
2022-11-15T07:05:02.887Z,5.80
2022-11-15T07:10:00.258Z,6.10
2022-11-15T07:14:57.888Z,6.50
2022-11-15T07:19:55.154Z,6.70
2022-11-15T07:24:52.455Z,6.80
2022-11-15T07:29:49.802Z,7.10
2022-11-15T07:34:47.502Z,7.80
2022-11-15T07:39:45.131Z,8.30
2022-11-15T07:44:42.354Z,8.70
2022-11-15T07:49:39.828Z,9.60
2022-11-15T07:54:37.201Z,9.50
2022-11-15T07:59:36.131Z,9.10
2022-11-15T08:04:33.883Z,8.90
2022-11-15T08:09:31.119Z,9.30
2022-11-15T08:14:28.346Z,10.20
2022-11-15T08:19:25.761Z,10.20
2022-11-15T08:24:23.049Z,10.00
2022-11-15T08:29:20.275Z,9.70
2022-11-15T08:34:17.548Z,9.70
2022-11-15T08:39:14.789Z,9.70
2022-11-15T08:44:11.985Z,9.70
2022-11-15T08:49:09.429Z,9.90
2022-11-15T08:54:06.808Z,10.00
2022-11-15T08:59:04.044Z,9.80
2022-11-15T09:04:01.318Z,9.60
2022-11-15T09:08:59.215Z,9.80
2022-11-15T09:13:56.759Z,10.50
2022-11-15T09:18:55.785Z,10.90
2022-11-15T09:23:53.643Z,10.90
2022-11-15T09:28:51.308Z,11.10
2022-11-15T09:33:48.906Z,11.70
2022-11-15T09:38:46.643Z,13.20
2022-11-15T09:44:03.685Z,13.60
2022-11-15T09:49:02.980Z,14.80
2022-11-15T10:00:45.377Z,15.40
2022-11-15T10:05:28.349Z,15.40
2022-11-15T10:11:15.786Z,15.90
2022-11-15T10:16:17.410Z,15.70
2022-11-15T10:21:20.956Z,15.10
2022-11-15T10:26:18.941Z,13.80
2022-11-15T10:31:27.852Z,13.20
2022-11-15T10:36:26.792Z,12.20
2022-11-15T10:41:36.906Z,11.70
2022-11-15T10:46:51.934Z,11.50
2022-11-15T10:51:54.400Z,11.70
2022-11-15T10:56:57.034Z,11.90
2022-11-15T11:01:55.311Z,11.90
2022-11-15T11:06:58.006Z,12.00
2022-11-15T11:11:56.020Z,11.80
2022-11-15T11:17:17.615Z,11.60
2022-11-15T11:22:38.905Z,11.70
2022-11-15T11:27:45.255Z,11.90
2022-11-15T11:32:42.586Z,12.10
2022-11-15T11:37:56.393Z,12.00
2022-11-15T11:43:12.296Z,11.90
2022-11-15T11:48:41.238Z,11.90
2022-11-15T11:53:51.638Z,11.90
2022-11-15T11:58:52.128Z,12.00
2022-11-15T12:04:15.009Z,12.30
2022-11-15T12:09:22.427Z,12.50
2022-11-15T12:14:58.442Z,12.80
2022-11-15T12:20:00.182Z,13.20
2022-11-15T12:25:32.117Z,13.50
2022-11-15T12:30:58.342Z,13.50
2022-11-15T12:36:01.242Z,13.40
2022-11-15T12:41:16.746Z,13.30
2022-11-15T12:46:22.688Z,13.30
2022-11-15T12:51:48.568Z,12.90
2022-11-15T12:56:45.937Z,12.50
2022-11-15T13:01:43.201Z,12.40
2022-11-15T13:06:49.199Z,12.30
2022-11-15T13:11:49.627Z,12.30
2022-11-15T13:16:48.805Z,12.40
2022-11-15T13:22:09.407Z,12.50
2022-11-15T13:27:18.151Z,12.60
2022-11-15T13:32:17.327Z,12.70
2022-11-15T13:37:35.561Z,12.70
2022-11-15T13:42:33.306Z,12.60
2022-11-15T13:47:32.779Z,12.60
2022-11-15T13:52:35.562Z,12.60
2022-11-15T13:57:45.735Z,12.50
2022-11-15T14:02:42.958Z,12.60
2022-11-15T14:07:44.312Z,12.50
2022-11-15T14:12:52.206Z,12.60
2022-11-15T14:17:50.370Z,12.40
2022-11-15T14:23:19.407Z,12.40
2022-11-15T14:28:19.822Z,12.40
2022-11-15T14:33:29.757Z,12.20
2022-11-15T14:38:28.599Z,12.10
2022-11-15T14:43:25.965Z,12.00
2022-11-15T14:48:23.301Z,12.00
2022-11-15T14:53:21.079Z,11.80
2022-11-15T14:58:18.326Z,11.70
2022-11-15T15:03:15.681Z,11.50
2022-11-15T15:08:13.158Z,11.40
2022-11-15T15:13:22.112Z,11.10
2022-11-15T15:18:21.078Z,11.00
2022-11-15T15:23:21.053Z,10.80
2022-11-15T15:28:18.286Z,10.80
2022-11-15T15:33:15.571Z,10.80
2022-11-15T15:38:13.730Z,10.50
2022-11-15T15:43:11.067Z,10.30
2022-11-15T15:48:14.491Z,10.10
2022-11-15T15:53:12.766Z,9.80
2022-11-15T15:58:10.416Z,9.60
2022-11-15T16:03:07.822Z,9.50
2022-11-15T16:08:05.811Z,9.30
2022-11-15T16:13:03.312Z,9.10
2022-11-15T16:18:01.999Z,9.00
2022-11-15T16:23:04.348Z,8.80
2022-11-15T16:28:05.026Z,8.70
2022-11-15T16:33:02.260Z,8.60
2022-11-15T16:37:59.501Z,8.50
2022-11-15T16:42:57.302Z,8.30
2022-11-15T16:47:54.782Z,8.10
2022-11-15T16:52:57.121Z,7.90
2022-11-15T16:57:55.548Z,7.70
2022-11-15T17:02:54.127Z,7.50
2022-11-15T17:07:55.172Z,7.40
2022-11-15T17:12:53.360Z,7.30
2022-11-15T17:17:55.458Z,7.30
2022-11-15T17:22:53.204Z,7.20
2022-11-15T17:27:50.525Z,7.20
2022-11-15T17:32:48.115Z,7.00
2022-11-15T17:37:45.987Z,6.80
2022-11-15T17:42:43.201Z,6.80
2022-11-15T17:47:42.184Z,6.70
2022-11-15T17:52:39.441Z,6.60
2022-11-15T17:57:36.638Z,6.60
2022-11-15T18:02:34.382Z,6.50
2022-11-15T18:07:31.773Z,6.40
2022-11-15T18:12:29.102Z,6.40
2022-11-15T18:17:26.987Z,6.50
2022-11-15T18:22:24.157Z,6.40
2022-11-15T18:27:21.703Z,6.40
2022-11-15T18:32:19.058Z,6.50
2022-11-15T18:37:16.506Z,6.40
2022-11-15T18:42:13.749Z,6.20
2022-11-15T18:47:11.110Z,6.00
2022-11-15T18:52:08.693Z,5.80
2022-11-15T18:57:06.890Z,5.70
2022-11-15T19:02:04.307Z,5.50
2022-11-15T19:07:01.762Z,5.50
2022-11-15T19:11:59.362Z,5.50
2022-11-15T19:16:56.665Z,5.40
2022-11-15T19:21:54.129Z,5.30
2022-11-15T19:26:51.351Z,5.20
2022-11-15T19:31:49.000Z,5.30
2022-11-15T19:36:46.402Z,5.20
2022-11-15T19:41:44.595Z,5.30
2022-11-15T19:46:42.447Z,5.40
2022-11-15T19:51:42.820Z,5.40
2022-11-15T19:56:40.355Z,5.30
2022-11-15T20:01:39.253Z,5.30
2022-11-15T20:06:40.219Z,5.20
2022-11-15T20:11:39.572Z,5.10
2022-11-15T20:16:36.863Z,4.90
2022-11-15T20:21:34.199Z,4.80
2022-11-15T20:26:32.397Z,4.90
2022-11-15T20:31:30.769Z,5.00
2022-11-15T20:36:28.833Z,4.80
2022-11-15T20:41:26.988Z,4.80
2022-11-15T20:46:24.239Z,4.80
2022-11-15T20:51:21.595Z,4.80
2022-11-15T20:56:21.270Z,4.70
2022-11-15T21:01:23.891Z,4.70
2022-11-15T21:06:22.745Z,4.70
2022-11-15T21:11:38.969Z,4.70
2022-11-15T21:16:36.315Z,4.70
2022-11-15T21:21:34.234Z,4.60
2022-11-15T21:26:31.584Z,4.60
2022-11-15T21:31:29.114Z,4.50
2022-11-15T21:36:26.775Z,4.60
2022-11-15T21:41:23.947Z,4.50
2022-11-15T21:46:21.314Z,4.40
2022-11-15T21:51:18.696Z,4.30
2022-11-15T21:56:16.347Z,4.30
2022-11-15T22:01:31.841Z,4.30
2022-11-15T22:06:29.252Z,4.20
2022-11-15T22:11:26.989Z,4.30
2022-11-15T22:16:24.434Z,4.30
2022-11-15T22:21:21.887Z,4.20
2022-11-15T22:26:23.519Z,4.20
2022-11-15T22:31:21.502Z,4.30
2022-11-15T22:36:18.780Z,4.20
2022-11-15T22:41:16.104Z,4.10
2022-11-15T22:46:13.396Z,4.00
2022-11-15T22:51:10.764Z,4.20
2022-11-15T22:56:08.503Z,4.20
2022-11-15T23:01:06.417Z,4.00
2022-11-15T23:06:06.401Z,4.10
2022-11-15T23:11:23.828Z,4.10
2022-11-15T23:16:37.225Z,4.00
2022-11-15T23:21:58.256Z,4.00
2022-11-15T23:26:58.548Z,4.10
2022-11-15T23:32:15.609Z,3.80
2022-11-15T23:37:14.964Z,3.90
2022-11-15T23:42:20.132Z,4.00
2022-11-15T23:47:18.885Z,4.00
2022-11-15T23:52:17.177Z,3.90
2022-11-15T23:57:14.488Z,3.90
